createdAt,value
2022-12-01T00:01:41.312Z,35.10
2022-12-01T00:04:09.874Z,31.20
2022-12-01T00:06:39.327Z,33.30
2022-12-01T00:09:25.546Z,31.80
2022-12-01T00:11:54.083Z,34.33
2022-12-01T00:14:24.003Z,38.10
2022-12-01T00:16:53.020Z,39.83
2022-12-01T00:19:21.657Z,43.80
2022-12-01T00:21:50.183Z,40.67
2022-12-01T00:24:18.710Z,44.53
2022-12-01T00:26:47.886Z,48.10
2022-12-01T00:29:16.711Z,44.13
2022-12-01T00:31:46.654Z,45.57
2022-12-01T00:34:24.484Z,48.77
2022-12-01T00:36:54.006Z,47.60
2022-12-01T00:39:22.649Z,44.10
2022-12-01T00:41:51.375Z,43.27
2022-12-01T00:44:19.932Z,40.63
2022-12-01T00:46:49.865Z,39.70
2022-12-01T00:49:18.701Z,38.73
2022-12-01T00:51:47.265Z,42.90
2022-12-01T00:54:16.023Z,47.13
2022-12-01T00:56:44.839Z,47.73
2022-12-01T00:59:13.528Z,46.33
2022-12-01T01:01:42.323Z,49.10
2022-12-01T01:04:12.406Z,50.67
2022-12-01T01:06:43.492Z,49.10
2022-12-01T01:09:12.665Z,48.67
2022-12-01T01:11:41.735Z,50.47
2022-12-01T01:14:10.802Z,45.43
2022-12-01T01:16:39.456Z,47.03
2022-12-01T01:19:08.172Z,47.77
2022-12-01T01:21:38.071Z,48.77
2022-12-01T01:24:07.771Z,45.87
2022-12-01T01:26:37.345Z,45.40
2022-12-01T01:29:08.313Z,41.90
2022-12-01T01:31:37.739Z,41.50
2022-12-01T01:34:06.360Z,40.07
2022-12-01T01:36:35.088Z,39.70
2022-12-01T01:39:05.218Z,43.63
2022-12-01T01:41:33.941Z,45.23
2022-12-01T01:44:04.133Z,46.17
2022-12-01T01:46:34.848Z,46.17
2022-12-01T01:49:07.999Z,42.87
2022-12-01T01:51:42.084Z,46.47
2022-12-01T01:54:19.474Z,43.50
2022-12-01T01:56:52.102Z,44.43
2022-12-01T01:59:27.997Z,44.73
2022-12-01T02:02:06.272Z,38.07
2022-12-01T02:04:37.108Z,39.20
2022-12-01T02:07:06.470Z,38.03
2022-12-01T02:09:36.777Z,43.13
2022-12-01T02:12:23.389Z,46.47
2022-12-01T02:15:09.584Z,48.03
2022-12-01T02:17:48.211Z,47.23
2022-12-01T02:20:51.544Z,45.17
2022-12-01T02:24:22.147Z,41.63
2022-12-01T02:27:00.750Z,39.30
2022-12-01T02:30:10.275Z,39.57
2022-12-01T02:32:59.505Z,43.43
2022-12-01T02:35:37.186Z,45.27
2022-12-01T02:38:16.936Z,46.00
2022-12-01T02:40:53.407Z,49.30
2022-12-01T02:43:30.788Z,46.73
2022-12-01T02:46:08.285Z,45.93
2022-12-01T02:48:43.172Z,48.07
2022-12-01T02:51:17.584Z,46.17
2022-12-01T02:53:48.105Z,42.80
2022-12-01T02:56:22.327Z,45.23
2022-12-01T02:58:51.251Z,44.70
2022-12-01T03:01:58.185Z,42.07
2022-12-01T03:04:55.881Z,43.37
2022-12-01T03:07:46.414Z,43.50
2022-12-01T03:10:24.145Z,38.97
2022-12-01T03:13:11.081Z,38.17
2022-12-01T03:15:49.341Z,40.07
2022-12-01T03:18:31.018Z,37.20
2022-12-01T03:21:09.682Z,37.37
2022-12-01T03:23:44.809Z,35.57
2022-12-01T03:26:20.090Z,34.07
2022-12-01T03:29:07.506Z,36.63
2022-12-01T03:31:43.023Z,35.57
2022-12-01T03:34:19.264Z,34.83
2022-12-01T03:36:56.358Z,32.33
2022-12-01T03:39:32.310Z,31.23
2022-12-01T03:42:06.712Z,34.67
2022-12-01T03:44:43.225Z,29.00
2022-12-01T03:47:17.943Z,31.50
2022-12-01T03:49:48.904Z,36.43
2022-12-01T03:52:33.882Z,30.60
2022-12-01T03:55:13.128Z,34.00
2022-12-01T03:57:50.149Z,34.03
2022-12-01T04:00:20.743Z,33.67
2022-12-01T04:02:49.717Z,31.43
2022-12-01T04:05:23.869Z,32.00
2022-12-01T04:07:55.385Z,31.63
2022-12-01T04:10:24.639Z,34.47
2022-12-01T04:12:58.945Z,34.43
2022-12-01T04:15:28.607Z,40.00
2022-12-01T04:17:57.355Z,31.30
2022-12-01T04:20:25.931Z,30.50
2022-12-01T04:22:55.914Z,32.57
2022-12-01T04:25:24.475Z,30.93
2022-12-01T04:27:53.120Z,32.60
2022-12-01T04:30:21.793Z,36.20
2022-12-01T04:32:50.360Z,42.00
2022-12-01T04:35:19.102Z,38.70
2022-12-01T04:37:47.624Z,41.57
2022-12-01T04:40:19.069Z,38.43
2022-12-01T04:42:47.580Z,36.33
2022-12-01T04:45:16.370Z,44.57
2022-12-01T04:47:44.850Z,44.10
2022-12-01T04:50:13.623Z,46.30
2022-12-01T04:52:42.192Z,43.90
2022-12-01T04:55:11.682Z,54.53
2022-12-01T04:57:41.698Z,56.70
2022-12-01T05:00:13.425Z,54.90
2022-12-01T05:02:43.744Z,53.50
2022-12-01T05:05:12.865Z,46.30
2022-12-01T05:07:41.946Z,42.80
2022-12-01T05:10:12.814Z,35.97
2022-12-01T05:12:42.728Z,35.93
2022-12-01T05:15:12.006Z,33.23
2022-12-01T05:17:40.675Z,34.80
2022-12-01T05:20:38.411Z,34.63
2022-12-01T05:23:08.236Z,34.53
2022-12-01T05:25:39.481Z,31.77
2022-12-01T05:28:09.404Z,30.63
2022-12-01T05:30:37.982Z,24.83
2022-12-01T05:33:06.491Z,25.57
2022-12-01T05:35:35.501Z,25.77
2022-12-01T05:38:08.069Z,25.30
2022-12-01T05:40:37.135Z,25.33
2022-12-01T05:43:06.708Z,28.73
2022-12-01T05:45:37.058Z,29.97
2022-12-01T05:48:06.303Z,30.67
2022-12-01T05:50:38.485Z,25.03
2022-12-01T05:53:07.933Z,25.43
2022-12-01T05:55:36.459Z,25.13
2022-12-01T05:58:05.249Z,26.90
2022-12-01T06:00:38.514Z,28.07
2022-12-01T06:03:11.068Z,23.73
2022-12-01T06:05:39.682Z,26.13
2022-12-01T06:08:08.415Z,24.60
2022-12-01T06:10:37.092Z,24.00
2022-12-01T06:13:05.693Z,24.07
2022-12-01T06:15:37.741Z,23.13
2022-12-01T06:18:06.385Z,25.30
2022-12-01T06:20:34.996Z,26.73
2022-12-01T06:23:03.588Z,26.17
2022-12-01T06:25:32.181Z,25.27
2022-12-01T06:28:01.190Z,26.40
2022-12-01T06:30:29.719Z,27.90
2022-12-01T06:32:59.679Z,28.53
2022-12-01T06:35:28.278Z,24.00
2022-12-01T06:37:56.842Z,26.37
2022-12-01T06:40:25.654Z,25.80
2022-12-01T06:42:54.281Z,25.13
2022-12-01T06:45:22.828Z,28.37
2022-12-01T06:47:55.418Z,30.17
2022-12-01T06:50:26.184Z,28.37
2022-12-01T06:52:55.514Z,40.73
2022-12-01T06:55:24.426Z,94.23
2022-12-01T06:57:53.210Z,43.23
2022-12-01T07:00:22.899Z,32.23
2022-12-01T07:02:51.459Z,29.90
2022-12-01T07:05:20.119Z,31.90
2022-12-01T07:07:52.724Z,31.60
2022-12-01T07:10:24.994Z,45.58
2022-12-01T07:12:53.569Z,45.17
2022-12-01T07:15:23.436Z,41.13
2022-12-01T07:17:52.020Z,38.67
2022-12-01T07:20:20.556Z,46.85
2022-12-01T07:22:50.465Z,41.53
2022-12-01T07:25:19.127Z,41.88
2022-12-01T07:27:47.832Z,43.40
2022-12-01T07:30:16.740Z,37.55
2022-12-01T07:32:45.275Z,40.33
2022-12-01T07:35:14.130Z,41.33
2022-12-01T07:37:42.667Z,40.50
2022-12-01T07:40:14.718Z,38.92
2022-12-01T07:42:43.688Z,37.25
2022-12-01T07:45:12.626Z,38.35
2022-12-01T07:47:41.384Z,38.67
2022-12-01T07:50:11.171Z,37.20
2022-12-01T07:52:39.790Z,38.58
2022-12-01T07:55:09.228Z,40.45
2022-12-01T07:57:39.216Z,40.70
2022-12-01T08:00:09.658Z,41.33
2022-12-01T08:02:38.265Z,39.53
2022-12-01T08:05:07.626Z,36.85
2022-12-01T08:07:36.588Z,41.75
2022-12-01T08:10:06.215Z,42.40
2022-12-01T08:12:34.706Z,39.83
2022-12-01T08:15:05.210Z,45.45
2022-12-01T08:17:33.835Z,44.25
2022-12-01T08:20:02.376Z,42.40
2022-12-01T08:22:30.967Z,40.40
2022-12-01T08:24:59.470Z,39.80
2022-12-01T08:27:28.438Z,44.65
2022-12-01T08:29:57.028Z,45.15
2022-12-01T08:32:27.094Z,43.97
2022-12-01T08:34:55.636Z,41.53
2022-12-01T08:37:24.122Z,42.72
2022-12-01T08:39:52.672Z,38.75
2022-12-01T08:42:21.803Z,40.00
2022-12-01T08:44:50.360Z,40.70
2022-12-01T08:47:19.322Z,39.10
2022-12-01T08:49:49.493Z,34.97
2022-12-01T08:52:18.266Z,37.92
2022-12-01T08:54:46.914Z,35.55
2022-12-01T08:57:15.505Z,37.75
2022-12-01T08:59:44.571Z,36.17
2022-12-01T09:02:16.103Z,38.90
2022-12-01T09:04:45.020Z,38.25
2022-12-01T09:07:20.198Z,36.40
2022-12-01T09:09:51.723Z,37.65
2022-12-01T09:12:20.414Z,34.80
2022-12-01T09:14:49.877Z,33.85
2022-12-01T09:17:19.306Z,30.70
2022-12-01T09:19:48.347Z,36.53
2022-12-01T09:22:18.533Z,33.78
2022-12-01T09:24:47.138Z,31.52
2022-12-01T09:27:15.697Z,29.60
2022-12-01T09:29:44.320Z,30.90
2022-12-01T09:32:12.836Z,30.35
2022-12-01T09:34:41.628Z,35.88
2022-12-01T09:37:10.142Z,33.03
2022-12-01T09:39:40.079Z,38.30
2022-12-01T09:42:16.792Z,39.60
2022-12-01T09:44:51.214Z,40.58
2022-12-01T09:47:25.929Z,46.53
2022-12-01T09:50:03.147Z,44.63
2022-12-01T09:52:41.902Z,44.63
2022-12-01T09:55:15.796Z,41.10
2022-12-01T09:57:48.042Z,47.33
2022-12-01T10:00:20.995Z,37.63
2022-12-01T10:02:55.931Z,36.53
2022-12-01T10:05:28.132Z,41.13
2022-12-01T10:08:01.894Z,36.63
2022-12-01T10:10:37.565Z,39.58
2022-12-01T10:13:19.194Z,40.17
2022-12-01T10:15:57.430Z,43.10
2022-12-01T10:18:43.574Z,37.90
2022-12-01T10:21:23.535Z,42.85
2022-12-01T10:24:18.510Z,42.55
2022-12-01T10:27:00.563Z,41.60
2022-12-01T10:29:46.491Z,41.38
2022-12-01T10:32:21.653Z,43.55
2022-12-01T10:34:50.492Z,47.45
2022-12-01T10:37:23.620Z,49.10
2022-12-01T10:39:56.329Z,44.53
2022-12-01T10:42:33.773Z,43.38
2022-12-01T10:45:05.785Z,44.30
2022-12-01T10:47:34.682Z,42.85
2022-12-01T10:50:05.642Z,41.25
2022-12-01T10:52:38.458Z,38.78
2022-12-01T10:55:28.022Z,38.53
2022-12-01T10:58:06.222Z,38.00
2022-12-01T11:00:58.950Z,37.60
2022-12-01T11:03:32.719Z,36.17
2022-12-01T11:06:06.643Z,34.03
2022-12-01T11:08:42.093Z,38.03
2022-12-01T11:11:31.010Z,36.40
2022-12-01T11:14:06.054Z,33.67
2022-12-01T11:16:42.619Z,30.80
2022-12-01T11:19:28.927Z,31.30
2022-12-01T11:22:00.030Z,29.42
2022-12-01T11:24:43.357Z,30.02
2022-12-01T11:27:19.347Z,24.08
2022-12-01T11:29:53.542Z,27.02
2022-12-01T11:32:27.366Z,25.23
2022-12-01T11:35:01.021Z,27.70
2022-12-01T11:37:34.667Z,23.40
2022-12-01T11:40:24.963Z,24.02
2022-12-01T11:43:00.550Z,22.27
2022-12-01T11:45:37.125Z,23.55
2022-12-01T11:48:19.903Z,23.30
2022-12-01T11:51:08.572Z,20.00
2022-12-01T11:53:40.230Z,19.83
2022-12-01T11:56:23.555Z,24.45
2022-12-01T11:59:00.382Z,22.80
2022-12-01T12:01:45.626Z,24.25
2022-12-01T12:04:36.287Z,22.88
2022-12-01T12:07:19.950Z,24.50
2022-12-01T12:10:19.046Z,23.83
2022-12-01T12:13:10.611Z,21.90
2022-12-01T12:15:52.791Z,23.80
2022-12-01T12:18:56.622Z,24.60
2022-12-01T12:21:34.884Z,22.52
2022-12-01T12:24:25.434Z,24.35
2022-12-01T12:27:03.834Z,23.63
2022-12-01T12:29:54.503Z,24.60
2022-12-01T12:33:11.033Z,30.27
2022-12-01T12:35:51.129Z,33.58
2022-12-01T12:38:49.047Z,34.65
2022-12-01T12:41:29.786Z,33.60
2022-12-01T12:44:18.529Z,34.45
2022-12-01T12:46:59.552Z,35.08
2022-12-01T12:49:40.788Z,34.65
2022-12-01T12:52:19.920Z,36.40
2022-12-01T12:54:56.581Z,38.10
2022-12-01T12:57:34.237Z,33.80
2022-12-01T13:00:09.151Z,36.53
2022-12-01T13:02:45.332Z,34.03
2022-12-01T13:05:22.004Z,30.95
2022-12-01T13:08:02.378Z,29.80
2022-12-01T13:10:39.095Z,31.77
2022-12-01T13:13:29.158Z,31.40
2022-12-01T13:16:01.227Z,28.30
2022-12-01T13:18:39.044Z,27.65
2022-12-01T13:21:08.766Z,25.42
2022-12-01T13:23:40.315Z,25.77
2022-12-01T13:26:11.641Z,25.35
2022-12-01T13:28:46.721Z,26.55
2022-12-01T13:31:18.030Z,26.27
2022-12-01T13:33:56.880Z,26.63
2022-12-01T13:39:22.575Z,23.95
2022-12-01T13:42:06.340Z,26.00
2022-12-01T13:44:43.250Z,25.40
2022-12-01T13:47:40.378Z,29.17
2022-12-01T13:50:55.707Z,27.67
2022-12-01T13:53:38.151Z,29.88
2022-12-01T13:56:39.599Z,28.33
2022-12-01T13:59:42.215Z,29.98
2022-12-01T14:02:21.230Z,29.58
2022-12-01T14:04:50.518Z,27.10
2022-12-01T14:07:39.739Z,27.92
2022-12-01T14:10:27.167Z,28.67
2022-12-01T14:13:03.043Z,27.52
2022-12-01T14:15:45.167Z,26.30
2022-12-01T14:18:35.465Z,27.25
2022-12-01T14:21:08.845Z,30.83
2022-12-01T14:23:41.336Z,29.10
2022-12-01T14:26:22.555Z,26.63
2022-12-01T14:29:32.485Z,27.25
2022-12-01T14:32:24.809Z,24.27
2022-12-01T14:35:01.815Z,25.75
2022-12-01T14:37:44.515Z,25.30
2022-12-01T14:40:30.369Z,31.15
2022-12-01T14:43:19.745Z,27.48
2022-12-01T14:46:02.822Z,29.63
2022-12-01T14:48:40.427Z,30.10
2022-12-01T14:51:30.023Z,33.47
2022-12-01T14:54:00.611Z,32.97
2022-12-01T14:56:31.466Z,35.60
2022-12-01T14:59:02.786Z,38.70
2022-12-01T15:01:38.334Z,34.22
2022-12-01T15:04:08.617Z,35.78
2022-12-01T15:06:38.805Z,36.15
2022-12-01T15:12:08.049Z,32.70
2022-12-01T15:14:40.569Z,34.50
2022-12-01T15:17:32.280Z,37.60
2022-12-01T15:20:00.983Z,31.45
2022-12-01T15:22:34.640Z,32.17
2022-12-01T15:25:09.778Z,35.17
2022-12-01T15:27:38.376Z,32.72
2022-12-01T15:30:13.889Z,33.72
2022-12-01T15:32:46.519Z,31.23
2022-12-01T15:35:22.313Z,33.00
2022-12-01T15:37:52.550Z,32.70
2022-12-01T15:43:20.494Z,37.47
2022-12-01T15:45:56.241Z,36.50
2022-12-01T15:48:36.505Z,37.70
2022-12-01T15:51:19.713Z,35.83
2022-12-01T15:53:58.954Z,32.67
2022-12-01T15:56:31.891Z,32.10
2022-12-01T15:59:09.616Z,35.73
2022-12-01T16:01:38.887Z,36.60
2022-12-01T16:04:20.370Z,34.17
2022-12-01T16:06:59.251Z,36.50
2022-12-01T16:09:35.301Z,37.97
2022-12-01T16:12:25.042Z,39.73
2022-12-01T16:15:04.212Z,35.93
2022-12-01T16:17:45.145Z,34.23
2022-12-01T16:20:24.256Z,38.17
2022-12-01T16:22:58.988Z,37.83
2022-12-01T16:25:36.955Z,36.63
2022-12-01T16:28:08.610Z,35.63
2022-12-01T16:30:40.698Z,37.87
2022-12-01T16:33:20.033Z,36.20
2022-12-01T16:35:50.519Z,39.87
2022-12-01T16:38:22.572Z,36.80
2022-12-01T16:40:54.686Z,40.03
2022-12-01T16:43:26.312Z,38.43
2022-12-01T16:46:03.618Z,40.33
2022-12-01T16:48:35.042Z,38.70
2022-12-01T16:51:08.112Z,39.73
2022-12-01T16:53:36.752Z,40.50
2022-12-01T16:56:05.960Z,39.10
2022-12-01T16:58:34.642Z,43.50
2022-12-01T17:01:03.244Z,44.97
2022-12-01T17:03:31.844Z,42.43
2022-12-01T17:06:03.201Z,40.27
2022-12-01T17:08:33.332Z,42.17
2022-12-01T17:11:02.213Z,38.57
2022-12-01T17:13:30.818Z,40.53
2022-12-01T17:15:59.529Z,38.33
2022-12-01T17:18:28.220Z,37.37
2022-12-01T17:21:01.279Z,39.47
2022-12-01T17:23:32.845Z,38.27
2022-12-01T17:26:02.550Z,37.13
2022-12-01T17:28:31.110Z,41.23
2022-12-01T17:31:02.225Z,38.83
2022-12-01T17:33:31.097Z,36.90
2022-12-01T17:36:03.526Z,39.13
2022-12-01T17:38:36.546Z,40.20
2022-12-01T17:41:08.974Z,38.17
2022-12-01T17:43:39.643Z,38.03
2022-12-01T17:46:12.194Z,38.60
2022-12-01T17:48:43.223Z,38.67
2022-12-01T17:51:13.730Z,37.10
2022-12-01T17:53:43.911Z,33.73
2022-12-01T17:56:15.992Z,35.67
2022-12-01T17:58:45.201Z,37.83
2022-12-01T18:01:18.569Z,32.10
2022-12-01T18:03:47.851Z,36.30
2022-12-01T18:06:18.411Z,45.80
2022-12-01T18:08:49.079Z,36.23
2022-12-01T18:11:22.963Z,39.40
2022-12-01T18:13:53.438Z,36.10
2022-12-01T18:16:25.544Z,36.33
2022-12-01T18:18:59.893Z,33.43
2022-12-01T18:21:34.097Z,33.93
2022-12-01T18:24:10.119Z,40.47
2022-12-01T18:26:41.749Z,33.97
2022-12-01T18:29:16.238Z,38.50
2022-12-01T18:31:45.699Z,36.57
2022-12-01T18:34:14.539Z,41.47
2022-12-01T18:36:43.246Z,37.00
2022-12-01T18:39:14.320Z,39.43
2022-12-01T18:41:43.089Z,37.80
2022-12-01T18:44:13.251Z,39.13
2022-12-01T18:46:44.835Z,45.43
2022-12-01T18:49:13.934Z,36.93
2022-12-01T18:51:45.658Z,39.07
2022-12-01T18:54:16.714Z,39.73
2022-12-01T18:56:45.474Z,34.77
2022-12-01T18:59:16.982Z,35.90
2022-12-01T19:01:46.613Z,39.87
2022-12-01T19:04:17.421Z,40.47
2022-12-01T19:06:47.298Z,40.70
2022-12-01T19:09:17.688Z,48.37
2022-12-01T19:11:46.557Z,53.17
2022-12-01T19:14:18.700Z,42.20
2022-12-01T19:16:47.570Z,40.70
2022-12-01T19:19:16.198Z,39.90
2022-12-01T19:21:45.461Z,41.03
2022-12-01T19:24:14.459Z,38.87
2022-12-01T19:26:44.495Z,45.07
2022-12-01T19:29:13.511Z,40.43
2022-12-01T19:31:42.385Z,40.97
2022-12-01T19:34:10.995Z,38.33
2022-12-01T19:36:42.388Z,44.67
2022-12-01T19:39:11.298Z,48.33
2022-12-01T19:41:39.975Z,43.57
2022-12-01T19:44:11.694Z,44.30
2022-12-01T19:46:40.262Z,55.30
2022-12-01T19:49:08.907Z,51.97
2022-12-01T19:51:40.689Z,46.27
2022-12-01T19:54:23.481Z,48.33
2022-12-01T19:56:52.148Z,46.87
2022-12-01T19:59:22.368Z,43.07
2022-12-01T20:01:51.119Z,43.50
2022-12-01T20:04:19.883Z,43.30
2022-12-01T20:06:48.663Z,43.30
2022-12-01T20:09:17.192Z,43.10
2022-12-01T20:11:45.804Z,44.93
2022-12-01T20:14:14.739Z,42.37
2022-12-01T20:16:44.850Z,42.13
2022-12-01T20:19:13.453Z,40.40
2022-12-01T20:21:44.341Z,40.30
2022-12-01T20:24:15.063Z,37.80
2022-12-01T20:26:46.729Z,40.47
2022-12-01T20:29:21.210Z,46.43
2022-12-01T20:31:53.928Z,41.87
2022-12-01T20:34:31.227Z,44.57
2022-12-01T20:37:00.436Z,42.67
2022-12-01T20:39:31.521Z,39.30
2022-12-01T20:42:00.215Z,43.57
2022-12-01T20:44:29.334Z,42.90
2022-12-01T20:46:59.457Z,38.60
2022-12-01T20:49:28.097Z,41.57
2022-12-01T20:51:56.967Z,38.00
2022-12-01T20:54:28.395Z,42.37
2022-12-01T20:56:58.597Z,43.53
2022-12-01T20:59:28.109Z,42.93
2022-12-01T21:01:58.652Z,38.60
2022-12-01T21:04:27.333Z,39.17
2022-12-01T21:06:57.452Z,36.17
2022-12-01T21:09:27.178Z,39.17
2022-12-01T21:12:17.024Z,41.83
2022-12-01T21:14:53.475Z,39.37
2022-12-01T21:17:34.885Z,43.30
2022-12-01T21:20:21.369Z,43.53
2022-12-01T21:22:51.651Z,37.43
2022-12-01T21:25:24.396Z,38.37
2022-12-01T21:27:53.270Z,41.27
2022-12-01T21:30:26.237Z,38.57
2022-12-01T21:33:17.000Z,37.60
2022-12-01T21:35:45.567Z,42.40
2022-12-01T21:38:19.045Z,38.47
2022-12-01T21:40:50.885Z,40.83
2022-12-01T21:43:22.735Z,39.43
2022-12-01T21:45:55.379Z,39.07
2022-12-01T21:48:25.797Z,42.00
2022-12-01T21:51:03.749Z,43.40
2022-12-01T21:53:38.403Z,44.27
2022-12-01T21:56:15.279Z,44.57
2022-12-01T21:58:45.796Z,41.93
2022-12-01T22:01:22.735Z,41.60
2022-12-01T22:03:55.748Z,40.43
2022-12-01T22:06:34.837Z,41.60
2022-12-01T22:09:15.415Z,41.60
2022-12-01T22:11:48.218Z,43.23
2022-12-01T22:14:21.330Z,40.27
2022-12-01T22:16:57.029Z,41.17
2022-12-01T22:19:32.409Z,39.57
2022-12-01T22:22:18.676Z,41.40
2022-12-01T22:24:49.957Z,36.80
2022-12-01T22:27:32.360Z,38.90
2022-12-01T22:30:11.858Z,42.57
2022-12-01T22:32:52.986Z,42.03
2022-12-01T22:35:34.899Z,39.33
2022-12-01T22:38:26.874Z,38.50
2022-12-01T22:40:59.418Z,41.00
2022-12-01T22:43:55.288Z,43.90
2022-12-01T22:46:34.599Z,42.47
2022-12-01T22:49:17.886Z,39.60
2022-12-01T22:51:50.613Z,43.27
2022-12-01T22:54:30.905Z,38.87
2022-12-01T22:57:38.847Z,42.67
2022-12-01T23:00:17.329Z,42.67
2022-12-01T23:02:48.724Z,39.93
2022-12-01T23:05:26.017Z,43.00
2022-12-01T23:07:57.174Z,42.80
2022-12-01T23:10:30.593Z,44.90
2022-12-01T23:13:10.097Z,39.73
2022-12-01T23:15:41.324Z,38.83
2022-12-01T23:18:17.384Z,39.03
2022-12-01T23:20:50.287Z,42.33
2022-12-01T23:23:22.718Z,41.37
2022-12-01T23:25:52.330Z,43.10
2022-12-01T23:28:22.206Z,40.23
2022-12-01T23:30:58.083Z,40.33
2022-12-01T23:33:29.803Z,42.17
2022-12-01T23:36:05.312Z,41.67
2022-12-01T23:38:39.378Z,43.37
2022-12-01T23:41:13.815Z,41.97
2022-12-01T23:43:46.041Z,42.17
2022-12-01T23:46:19.459Z,42.47
2022-12-01T23:48:53.472Z,41.80
2022-12-01T23:51:29.651Z,39.80
2022-12-01T23:54:05.553Z,42.00
2022-12-01T23:56:34.178Z,38.37
2022-12-01T23:59:02.746Z,41.83
